sensor_id;sensor_type;location;lat;lon;timestamp;P1;durP1;ratioP1;P2;durP2;ratioP2
4517;SDS011;2271;49.464;11.070;2024-03-25T00:01:14;2.33;;;2.03;;
4517;SDS011;2271;49.464;11.070;2024-03-25T00:03:39;3.80;;;2.77;;
4517;SDS011;2271;49.464;11.070;2024-03-25T00:06:05;4.80;;;2.63;;
4517;SDS011;2271;49.464;11.070;2024-03-25T00:08:31;3.77;;;2.80;;
4517;SDS011;2271;49.464;11.070;2024-03-25T00:10:57;4.53;;;2.57;;
4517;SDS011;2271;49.464;11.070;2024-03-25T00:13:23;3.90;;;2.47;;
4517;SDS011;2271;49.464;11.070;2024-03-25T00:15:48;3.03;;;2.40;;
4517;SDS011;2271;49.464;11.070;2024-03-25T00:18:14;3.27;;;2.10;;
4517;SDS011;2271;49.464;11.070;2024-03-25T00:20:40;4.60;;;2.60;;
4517;SDS011;2271;49.464;11.070;2024-03-25T00:23:05;3.40;;;2.43;;
4517;SDS011;2271;49.464;11.070;2024-03-25T00:25:32;3.00;;;2.13;;
4517;SDS011;2271;49.464;11.070;2024-03-25T00:27:57;4.40;;;2.73;;
4517;SDS011;2271;49.464;11.070;2024-03-25T00:30:23;3.47;;;2.67;;
4517;SDS011;2271;49.464;11.070;2024-03-25T00:32:49;4.13;;;2.40;;
4517;SDS011;2271;49.464;11.070;2024-03-25T00:35:15;3.53;;;2.13;;
4517;SDS011;2271;49.464;11.070;2024-03-25T00:37:41;4.23;;;2.50;;
4517;SDS011;2271;49.464;11.070;2024-03-25T00:40:07;4.37;;;2.20;;
4517;SDS011;2271;49.464;11.070;2024-03-25T00:42:33;5.77;;;2.70;;
4517;SDS011;2271;49.464;11.070;2024-03-25T00:44:58;6.70;;;2.47;;
4517;SDS011;2271;49.464;11.070;2024-03-25T00:47:25;3.23;;;2.47;;
4517;SDS011;2271;49.464;11.070;2024-03-25T00:49:51;4.30;;;2.80;;
4517;SDS011;2271;49.464;11.070;2024-03-25T00:52:16;3.33;;;2.73;;
4517;SDS011;2271;49.464;11.070;2024-03-25T00:54:42;3.50;;;2.70;;
4517;SDS011;2271;49.464;11.070;2024-03-25T00:57:07;3.80;;;2.13;;
4517;SDS011;2271;49.464;11.070;2024-03-25T00:59:33;6.90;;;2.87;;
4517;SDS011;2271;49.464;11.070;2024-03-25T01:01:59;4.10;;;2.50;;
4517;SDS011;2271;49.464;11.070;2024-03-25T01:04:25;5.57;;;2.87;;
4517;SDS011;2271;49.464;11.070;2024-03-25T01:06:50;5.20;;;2.67;;
4517;SDS011;2271;49.464;11.070;2024-03-25T01:09:16;4.10;;;2.40;;
4517;SDS011;2271;49.464;11.070;2024-03-25T01:11:41;4.17;;;2.73;;
4517;SDS011;2271;49.464;11.070;2024-03-25T01:14:07;3.60;;;2.60;;
4517;SDS011;2271;49.464;11.070;2024-03-25T01:16:33;6.77;;;2.83;;
4517;SDS011;2271;49.464;11.070;2024-03-25T01:18:58;3.10;;;2.40;;
4517;SDS011;2271;49.464;11.070;2024-03-25T01:21:24;5.30;;;2.40;;
4517;SDS011;2271;49.464;11.070;2024-03-25T01:23:50;3.93;;;2.43;;
4517;SDS011;2271;49.464;11.070;2024-03-25T01:26:16;3.73;;;2.33;;
4517;SDS011;2271;49.464;11.070;2024-03-25T01:28:42;2.30;;;2.10;;
4517;SDS011;2271;49.464;11.070;2024-03-25T01:31:07;4.50;;;2.60;;
4517;SDS011;2271;49.464;11.070;2024-03-25T01:33:33;4.83;;;2.57;;
4517;SDS011;2271;49.464;11.070;2024-03-25T01:36:00;4.47;;;2.30;;
4517;SDS011;2271;49.464;11.070;2024-03-25T01:38:25;2.80;;;2.33;;
4517;SDS011;2271;49.464;11.070;2024-03-25T01:40:51;6.33;;;2.77;;
4517;SDS011;2271;49.464;11.070;2024-03-25T01:43:17;3.97;;;2.50;;
4517;SDS011;2271;49.464;11.070;2024-03-25T01:45:42;4.27;;;2.77;;
4517;SDS011;2271;49.464;11.070;2024-03-25T01:48:09;3.70;;;2.40;;
4517;SDS011;2271;49.464;11.070;2024-03-25T01:50:38;3.10;;;2.70;;
4517;SDS011;2271;49.464;11.070;2024-03-25T01:53:07;3.60;;;2.40;;
4517;SDS011;2271;49.464;11.070;2024-03-25T01:55:34;2.80;;;2.30;;
4517;SDS011;2271;49.464;11.070;2024-03-25T01:58:01;2.67;;;2.40;;
4517;SDS011;2271;49.464;11.070;2024-03-25T02:00:27;4.27;;;2.40;;
4517;SDS011;2271;49.464;11.070;2024-03-25T02:02:53;5.33;;;3.27;;
4517;SDS011;2271;49.464;11.070;2024-03-25T02:05:19;5.13;;;3.43;;
4517;SDS011;2271;49.464;11.070;2024-03-25T02:07:45;3.97;;;2.10;;
4517;SDS011;2271;49.464;11.070;2024-03-25T02:10:12;3.13;;;2.47;;
4517;SDS011;2271;49.464;11.070;2024-03-25T02:12:45;4.63;;;2.60;;
4517;SDS011;2271;49.464;11.070;2024-03-25T02:15:12;4.27;;;2.40;;
4517;SDS011;2271;49.464;11.070;2024-03-25T02:17:41;2.70;;;2.40;;
4517;SDS011;2271;49.464;11.070;2024-03-25T02:20:06;6.97;;;3.13;;
4517;SDS011;2271;49.464;11.070;2024-03-25T02:22:33;3.00;;;2.50;;
4517;SDS011;2271;49.464;11.070;2024-03-25T02:25:05;3.17;;;2.10;;
4517;SDS011;2271;49.464;11.070;2024-03-25T02:27:33;4.60;;;2.70;;
4517;SDS011;2271;49.464;11.070;2024-03-25T02:30:06;4.73;;;2.37;;
4517;SDS011;2271;49.464;11.070;2024-03-25T02:32:32;8.47;;;2.70;;
4517;SDS011;2271;49.464;11.070;2024-03-25T02:34:58;6.47;;;2.53;;
4517;SDS011;2271;49.464;11.070;2024-03-25T02:37:25;4.67;;;2.57;;
4517;SDS011;2271;49.464;11.070;2024-03-25T02:39:52;4.27;;;2.47;;
4517;SDS011;2271;49.464;11.070;2024-03-25T02:42:20;5.33;;;2.67;;
4517;SDS011;2271;49.464;11.070;2024-03-25T02:44:46;2.77;;;2.23;;
4517;SDS011;2271;49.464;11.070;2024-03-25T02:47:12;6.10;;;2.43;;
4517;SDS011;2271;49.464;11.070;2024-03-25T02:49:38;3.80;;;2.80;;
4517;SDS011;2271;49.464;11.070;2024-03-25T02:52:03;4.67;;;2.60;;
4517;SDS011;2271;49.464;11.070;2024-03-25T02:54:29;3.60;;;2.27;;
4517;SDS011;2271;49.464;11.070;2024-03-25T02:56:55;4.07;;;2.43;;
4517;SDS011;2271;49.464;11.070;2024-03-25T02:59:21;4.70;;;2.53;;
4517;SDS011;2271;49.464;11.070;2024-03-25T03:01:46;2.73;;;2.47;;
4517;SDS011;2271;49.464;11.070;2024-03-25T03:04:12;3.80;;;2.67;;
4517;SDS011;2271;49.464;11.070;2024-03-25T03:06:38;3.13;;;2.40;;
4517;SDS011;2271;49.464;11.070;2024-03-25T03:09:03;2.60;;;2.30;;
4517;SDS011;2271;49.464;11.070;2024-03-25T03:11:29;4.63;;;2.93;;
4517;SDS011;2271;49.464;11.070;2024-03-25T03:13:54;3.27;;;2.60;;
4517;SDS011;2271;49.464;11.070;2024-03-25T03:16:20;3.33;;;2.80;;
4517;SDS011;2271;49.464;11.070;2024-03-25T03:18:46;4.53;;;2.67;;
4517;SDS011;2271;49.464;11.070;2024-03-25T03:21:11;5.80;;;2.77;;
4517;SDS011;2271;49.464;11.070;2024-03-25T03:23:37;4.70;;;3.00;;
4517;SDS011;2271;49.464;11.070;2024-03-25T03:26:02;5.53;;;3.20;;
4517;SDS011;2271;49.464;11.070;2024-03-25T03:28:28;4.80;;;3.00;;
4517;SDS011;2271;49.464;11.070;2024-03-25T03:30:54;4.83;;;2.57;;
4517;SDS011;2271;49.464;11.070;2024-03-25T03:33:19;3.50;;;3.20;;
4517;SDS011;2271;49.464;11.070;2024-03-25T03:35:45;5.93;;;3.00;;
4517;SDS011;2271;49.464;11.070;2024-03-25T03:38:10;8.33;;;3.17;;
4517;SDS011;2271;49.464;11.070;2024-03-25T03:40:36;4.57;;;3.10;;
4517;SDS011;2271;49.464;11.070;2024-03-25T03:43:02;6.00;;;3.37;;
4517;SDS011;2271;49.464;11.070;2024-03-25T03:45:32;3.13;;;2.83;;
4517;SDS011;2271;49.464;11.070;2024-03-25T03:47:58;4.27;;;3.27;;
4517;SDS011;2271;49.464;11.070;2024-03-25T03:50:24;3.67;;;3.30;;
4517;SDS011;2271;49.464;11.070;2024-03-25T03:52:49;5.67;;;3.20;;
4517;SDS011;2271;49.464;11.070;2024-03-25T03:55:15;6.83;;;3.70;;
4517;SDS011;2271;49.464;11.070;2024-03-25T03:57:41;4.20;;;3.33;;
4517;SDS011;2271;49.464;11.070;2024-03-25T04:00:08;8.50;;;4.40;;
4517;SDS011;2271;49.464;11.070;2024-03-25T04:02:36;3.80;;;3.30;;
4517;SDS011;2271;49.464;11.070;2024-03-25T04:05:02;3.30;;;3.00;;
4517;SDS011;2271;49.464;11.070;2024-03-25T04:07:29;5.67;;;3.50;;
4517;SDS011;2271;49.464;11.070;2024-03-25T04:09:57;5.97;;;3.87;;
4517;SDS011;2271;49.464;11.070;2024-03-25T04:12:23;4.67;;;3.60;;
4517;SDS011;2271;49.464;11.070;2024-03-25T04:14:48;5.40;;;3.57;;
4517;SDS011;2271;49.464;11.070;2024-03-25T04:17:19;6.10;;;3.80;;
4517;SDS011;2271;49.464;11.070;2024-03-25T04:19:46;4.20;;;3.80;;
4517;SDS011;2271;49.464;11.070;2024-03-25T04:22:15;7.07;;;3.93;;
4517;SDS011;2271;49.464;11.070;2024-03-25T04:24:42;6.10;;;3.30;;
4517;SDS011;2271;49.464;11.070;2024-03-25T04:27:08;5.50;;;3.70;;
4517;SDS011;2271;49.464;11.070;2024-03-25T04:29:34;4.80;;;3.50;;
4517;SDS011;2271;49.464;11.070;2024-03-25T04:32:00;5.80;;;3.50;;
4517;SDS011;2271;49.464;11.070;2024-03-25T04:34:26;7.00;;;3.93;;
4517;SDS011;2271;49.464;11.070;2024-03-25T04:36:52;7.17;;;3.60;;
4517;SDS011;2271;49.464;11.070;2024-03-25T04:39:18;6.47;;;4.13;;
4517;SDS011;2271;49.464;11.070;2024-03-25T04:41:44;5.03;;;3.37;;
4517;SDS011;2271;49.464;11.070;2024-03-25T04:44:11;6.90;;;3.53;;
4517;SDS011;2271;49.464;11.070;2024-03-25T04:46:36;6.50;;;4.23;;
4517;SDS011;2271;49.464;11.070;2024-03-25T04:49:02;5.50;;;3.30;;
4517;SDS011;2271;49.464;11.070;2024-03-25T04:51:28;4.87;;;3.43;;
4517;SDS011;2271;49.464;11.070;2024-03-25T04:53:53;7.50;;;3.50;;
4517;SDS011;2271;49.464;11.070;2024-03-25T04:56:19;6.23;;;3.30;;
4517;SDS011;2271;49.464;11.070;2024-03-25T04:58:45;4.70;;;3.50;;
4517;SDS011;2271;49.464;11.070;2024-03-25T05:01:10;9.53;;;3.60;;
4517;SDS011;2271;49.464;11.070;2024-03-25T05:03:36;4.43;;;3.10;;
4517;SDS011;2271;49.464;11.070;2024-03-25T05:06:01;5.33;;;3.27;;
4517;SDS011;2271;49.464;11.070;2024-03-25T05:08:28;4.03;;;3.63;;
4517;SDS011;2271;49.464;11.070;2024-03-25T05:10:53;7.57;;;3.77;;
4517;SDS011;2271;49.464;11.070;2024-03-25T05:13:19;3.40;;;2.67;;
4517;SDS011;2271;49.464;11.070;2024-03-25T05:15:51;7.20;;;3.63;;
4517;SDS011;2271;49.464;11.070;2024-03-25T05:18:17;4.73;;;3.57;;
4517;SDS011;2271;49.464;11.070;2024-03-25T05:20:43;4.20;;;3.23;;
4517;SDS011;2271;49.464;11.070;2024-03-25T05:23:09;5.60;;;3.77;;
4517;SDS011;2271;49.464;11.070;2024-03-25T05:25:35;4.90;;;3.87;;
4517;SDS011;2271;49.464;11.070;2024-03-25T05:28:01;6.03;;;4.03;;
4517;SDS011;2271;49.464;11.070;2024-03-25T05:30:27;5.07;;;3.70;;
4517;SDS011;2271;49.464;11.070;2024-03-25T05:32:53;6.43;;;4.10;;
4517;SDS011;2271;49.464;11.070;2024-03-25T05:35:18;4.63;;;3.70;;
4517;SDS011;2271;49.464;11.070;2024-03-25T05:37:44;6.27;;;4.23;;
4517;SDS011;2271;49.464;11.070;2024-03-25T05:40:10;6.27;;;3.63;;
4517;SDS011;2271;49.464;11.070;2024-03-25T05:42:36;5.13;;;3.17;;
4517;SDS011;2271;49.464;11.070;2024-03-25T05:45:02;4.57;;;3.27;;
4517;SDS011;2271;49.464;11.070;2024-03-25T05:47:28;6.03;;;3.47;;
4517;SDS011;2271;49.464;11.070;2024-03-25T05:49:54;7.03;;;3.67;;
4517;SDS011;2271;49.464;11.070;2024-03-25T05:52:20;4.43;;;3.30;;
4517;SDS011;2271;49.464;11.070;2024-03-25T05:54:45;7.00;;;3.63;;
4517;SDS011;2271;49.464;11.070;2024-03-25T05:57:11;5.00;;;3.60;;
4517;SDS011;2271;49.464;11.070;2024-03-25T05:59:36;11.27;;;4.63;;
4517;SDS011;2271;49.464;11.070;2024-03-25T06:02:02;4.60;;;3.47;;
4517;SDS011;2271;49.464;11.070;2024-03-25T06:04:28;5.07;;;3.60;;
4517;SDS011;2271;49.464;11.070;2024-03-25T06:06:53;4.50;;;2.97;;
4517;SDS011;2271;49.464;11.070;2024-03-25T06:09:19;8.45;;;3.40;;
4517;SDS011;2271;49.464;11.070;2024-03-25T06:11:44;5.15;;;3.00;;
4517;SDS011;2271;49.464;11.070;2024-03-25T06:14:10;5.80;;;3.13;;
4517;SDS011;2271;49.464;11.070;2024-03-25T06:16:35;5.82;;;3.30;;
4517;SDS011;2271;49.464;11.070;2024-03-25T06:19:01;7.97;;;3.78;;
4517;SDS011;2271;49.464;11.070;2024-03-25T06:21:27;7.30;;;3.22;;
4517;SDS011;2271;49.464;11.070;2024-03-25T06:23:53;4.97;;;3.58;;
4517;SDS011;2271;49.464;11.070;2024-03-25T06:26:19;9.10;;;3.67;;
4517;SDS011;2271;49.464;11.070;2024-03-25T06:28:45;5.32;;;3.70;;
4517;SDS011;2271;49.464;11.070;2024-03-25T06:31:10;6.22;;;4.10;;
4517;SDS011;2271;49.464;11.070;2024-03-25T06:33:54;4.75;;;3.30;;
4517;SDS011;2271;49.464;11.070;2024-03-25T06:36:39;4.93;;;3.55;;
4517;SDS011;2271;49.464;11.070;2024-03-25T06:39:04;5.95;;;2.85;;
4517;SDS011;2271;49.464;11.070;2024-03-25T06:41:31;4.72;;;3.05;;
4517;SDS011;2271;49.464;11.070;2024-03-25T06:43:57;3.58;;;3.08;;
4517;SDS011;2271;49.464;11.070;2024-03-25T06:46:22;4.35;;;3.00;;
4517;SDS011;2271;49.464;11.070;2024-03-25T06:48:48;5.43;;;3.20;;
4517;SDS011;2271;49.464;11.070;2024-03-25T06:51:13;5.60;;;3.47;;
4517;SDS011;2271;49.464;11.070;2024-03-25T06:53:39;5.57;;;3.28;;
4517;SDS011;2271;49.464;11.070;2024-03-25T06:56:05;5.93;;;3.47;;
4517;SDS011;2271;49.464;11.070;2024-03-25T06:58:32;4.80;;;2.83;;
4517;SDS011;2271;49.464;11.070;2024-03-25T07:01:03;3.35;;;2.83;;
4517;SDS011;2271;49.464;11.070;2024-03-25T07:03:37;4.70;;;2.83;;
4517;SDS011;2271;49.464;11.070;2024-03-25T07:06:03;4.82;;;2.65;;
4517;SDS011;2271;49.464;11.070;2024-03-25T07:08:30;6.78;;;2.70;;
4517;SDS011;2271;49.464;11.070;2024-03-25T07:10:56;3.05;;;2.17;;
4517;SDS011;2271;49.464;11.070;2024-03-25T07:13:22;4.78;;;2.30;;
4517;SDS011;2271;49.464;11.070;2024-03-25T07:15:48;4.60;;;2.38;;
4517;SDS011;2271;49.464;11.070;2024-03-25T07:18:14;6.22;;;2.03;;
4517;SDS011;2271;49.464;11.070;2024-03-25T07:20:40;2.38;;;1.70;;
4517;SDS011;2271;49.464;11.070;2024-03-25T07:23:06;3.47;;;2.22;;
4517;SDS011;2271;49.464;11.070;2024-03-25T07:25:32;3.95;;;2.10;;
4517;SDS011;2271;49.464;11.070;2024-03-25T07:27:58;2.95;;;1.98;;
4517;SDS011;2271;49.464;11.070;2024-03-25T07:30:24;3.45;;;1.80;;
4517;SDS011;2271;49.464;11.070;2024-03-25T07:32:58;2.72;;;1.67;;
4517;SDS011;2271;49.464;11.070;2024-03-25T07:35:24;4.82;;;2.35;;
4517;SDS011;2271;49.464;11.070;2024-03-25T07:37:50;3.13;;;2.10;;
4517;SDS011;2271;49.464;11.070;2024-03-25T07:40:19;2.92;;;1.25;;
4517;SDS011;2271;49.464;11.070;2024-03-25T07:42:47;3.20;;;1.67;;
4517;SDS011;2271;49.464;11.070;2024-03-25T07:45:14;4.60;;;1.63;;
4517;SDS011;2271;49.464;11.070;2024-03-25T07:47:40;3.55;;;1.30;;
4517;SDS011;2271;49.464;11.070;2024-03-25T07:50:06;4.35;;;1.25;;
4517;SDS011;2271;49.464;11.070;2024-03-25T07:52:33;6.00;;;1.40;;
4517;SDS011;2271;49.464;11.070;2024-03-25T07:55:05;4.95;;;2.35;;
4517;SDS011;2271;49.464;11.070;2024-03-25T07:57:34;4.45;;;1.45;;
4517;SDS011;2271;49.464;11.070;2024-03-25T07:59:59;2.33;;;1.35;;
4517;SDS011;2271;49.464;11.070;2024-03-25T08:02:25;4.72;;;1.83;;
4517;SDS011;2271;49.464;11.070;2024-03-25T08:04:51;3.33;;;1.55;;
4517;SDS011;2271;49.464;11.070;2024-03-25T08:07:16;5.32;;;1.52;;
4517;SDS011;2271;49.464;11.070;2024-03-25T08:09:42;5.47;;;1.57;;
4517;SDS011;2271;49.464;11.070;2024-03-25T08:12:08;2.75;;;1.20;;
4517;SDS011;2271;49.464;11.070;2024-03-25T08:14:33;3.95;;;1.38;;
4517;SDS011;2271;49.464;11.070;2024-03-25T08:16:59;5.13;;;1.77;;
4517;SDS011;2271;49.464;11.070;2024-03-25T08:19:25;4.03;;;1.58;;
4517;SDS011;2271;49.464;11.070;2024-03-25T08:21:50;9.07;;;1.75;;
4517;SDS011;2271;49.464;11.070;2024-03-25T08:24:16;5.05;;;1.55;;
4517;SDS011;2271;49.464;11.070;2024-03-25T08:26:41;1.63;;;1.37;;
4517;SDS011;2271;49.464;11.070;2024-03-25T08:29:08;6.53;;;1.27;;
4517;SDS011;2271;49.464;11.070;2024-03-25T08:31:34;3.13;;;1.50;;
4517;SDS011;2271;49.464;11.070;2024-03-25T08:34:00;5.00;;;1.50;;
4517;SDS011;2271;49.464;11.070;2024-03-25T08:36:25;4.73;;;1.40;;
4517;SDS011;2271;49.464;11.070;2024-03-25T08:38:51;3.13;;;1.43;;
4517;SDS011;2271;49.464;11.070;2024-03-25T08:41:16;6.43;;;1.70;;
4517;SDS011;2271;49.464;11.070;2024-03-25T08:43:42;2.70;;;1.60;;
4517;SDS011;2271;49.464;11.070;2024-03-25T08:46:07;6.03;;;2.03;;
4517;SDS011;2271;49.464;11.070;2024-03-25T08:48:33;3.20;;;1.43;;
4517;SDS011;2271;49.464;11.070;2024-03-25T08:50:58;3.93;;;1.97;;
4517;SDS011;2271;49.464;11.070;2024-03-25T08:53:24;3.73;;;1.60;;
4517;SDS011;2271;49.464;11.070;2024-03-25T08:55:50;2.60;;;1.20;;
4517;SDS011;2271;49.464;11.070;2024-03-25T08:58:15;2.23;;;1.20;;
4517;SDS011;2271;49.464;11.070;2024-03-25T09:00:41;3.70;;;1.40;;
4517;SDS011;2271;49.464;11.070;2024-03-25T09:03:08;4.63;;;2.00;;
4517;SDS011;2271;49.464;11.070;2024-03-25T09:05:34;2.57;;;1.20;;
4517;SDS011;2271;49.464;11.070;2024-03-25T09:08:00;2.33;;;0.97;;
4517;SDS011;2271;49.464;11.070;2024-03-25T09:10:26;4.50;;;1.70;;
4517;SDS011;2271;49.464;11.070;2024-03-25T09:13:10;5.27;;;1.63;;
4517;SDS011;2271;49.464;11.070;2024-03-25T09:15:36;5.00;;;1.80;;
4517;SDS011;2271;49.464;11.070;2024-03-25T09:18:01;3.80;;;1.80;;
4517;SDS011;2271;49.464;11.070;2024-03-25T09:20:27;6.83;;;1.97;;
4517;SDS011;2271;49.464;11.070;2024-03-25T09:22:54;1.93;;;1.10;;
4517;SDS011;2271;49.464;11.070;2024-03-25T09:25:20;3.87;;;1.50;;
4517;SDS011;2271;49.464;11.070;2024-03-25T09:27:46;3.30;;;1.50;;
4517;SDS011;2271;49.464;11.070;2024-03-25T09:30:12;3.43;;;1.77;;
4517;SDS011;2271;49.464;11.070;2024-03-25T09:32:38;3.80;;;1.77;;
4517;SDS011;2271;49.464;11.070;2024-03-25T09:35:04;4.47;;;1.63;;
4517;SDS011;2271;49.464;11.070;2024-03-25T09:37:30;5.53;;;1.73;;
4517;SDS011;2271;49.464;11.070;2024-03-25T09:39:57;2.85;;;1.60;;
4517;SDS011;2271;49.464;11.070;2024-03-25T09:42:27;5.40;;;1.88;;
4517;SDS011;2271;49.464;11.070;2024-03-25T09:44:56;3.55;;;1.50;;
4517;SDS011;2271;49.464;11.070;2024-03-25T09:47:22;2.38;;;1.55;;
4517;SDS011;2271;49.464;11.070;2024-03-25T09:49:48;4.05;;;1.75;;
4517;SDS011;2271;49.464;11.070;2024-03-25T09:52:15;3.15;;;1.77;;
4517;SDS011;2271;49.464;11.070;2024-03-25T09:54:41;4.55;;;2.30;;
4517;SDS011;2271;49.464;11.070;2024-03-25T09:57:07;4.22;;;1.55;;
4517;SDS011;2271;49.464;11.070;2024-03-25T09:59:34;2.83;;;1.38;;
4517;SDS011;2271;49.464;11.070;2024-03-25T10:02:00;2.20;;;1.33;;
4517;SDS011;2271;49.464;11.070;2024-03-25T10:04:27;3.00;;;1.83;;
4517;SDS011;2271;49.464;11.070;2024-03-25T10:06:54;5.30;;;2.00;;
4517;SDS011;2271;49.464;11.070;2024-03-25T10:09:20;2.22;;;1.45;;
4517;SDS011;2271;49.464;11.070;2024-03-25T10:11:47;7.32;;;1.92;;
4517;SDS011;2271;49.464;11.070;2024-03-25T10:14:14;2.63;;;1.30;;
4517;SDS011;2271;49.464;11.070;2024-03-25T10:16:41;1.95;;;1.60;;
4517;SDS011;2271;49.464;11.070;2024-03-25T10:19:07;1.85;;;1.15;;
4517;SDS011;2271;49.464;11.070;2024-03-25T10:21:32;3.47;;;1.63;;
4517;SDS011;2271;49.464;11.070;2024-03-25T10:23:58;1.65;;;1.10;;
4517;SDS011;2271;49.464;11.070;2024-03-25T10:26:27;3.47;;;1.70;;
4517;SDS011;2271;49.464;11.070;2024-03-25T10:29:02;2.70;;;1.73;;
4517;SDS011;2271;49.464;11.070;2024-03-25T10:31:29;5.05;;;1.70;;
4517;SDS011;2271;49.464;11.070;2024-03-25T10:33:55;2.72;;;1.80;;
4517;SDS011;2271;49.464;11.070;2024-03-25T10:36:21;4.18;;;2.13;;
4517;SDS011;2271;49.464;11.070;2024-03-25T10:38:49;2.83;;;1.77;;
4517;SDS011;2271;49.464;11.070;2024-03-25T10:41:24;1.77;;;1.60;;
4517;SDS011;2271;49.464;11.070;2024-03-25T10:43:51;2.58;;;1.70;;
4517;SDS011;2271;49.464;11.070;2024-03-25T10:46:19;3.00;;;1.55;;
4517;SDS011;2271;49.464;11.070;2024-03-25T10:51:48;4.28;;;1.90;;
4517;SDS011;2271;49.464;11.070;2024-03-25T10:54:15;2.63;;;1.65;;
4517;SDS011;2271;49.464;11.070;2024-03-25T10:56:42;5.15;;;1.70;;
4517;SDS011;2271;49.464;11.070;2024-03-25T10:59:08;1.70;;;1.60;;
4517;SDS011;2271;49.464;11.070;2024-03-25T11:01:37;4.68;;;1.65;;
4517;SDS011;2271;49.464;11.070;2024-03-25T11:04:03;1.63;;;1.25;;
4517;SDS011;2271;49.464;11.070;2024-03-25T11:06:31;3.08;;;1.00;;
4517;SDS011;2271;49.464;11.070;2024-03-25T11:08:57;3.40;;;1.38;;
4517;SDS011;2271;49.464;11.070;2024-03-25T11:11:30;2.30;;;1.40;;
4517;SDS011;2271;49.464;11.070;2024-03-25T11:13:58;2.10;;;1.38;;
4517;SDS011;2271;49.464;11.070;2024-03-25T11:16:30;2.22;;;1.20;;
4517;SDS011;2271;49.464;11.070;2024-03-25T11:19:02;2.67;;;1.08;;
4517;SDS011;2271;49.464;11.070;2024-03-25T11:21:28;1.50;;;1.27;;
4517;SDS011;2271;49.464;11.070;2024-03-25T11:23:54;4.60;;;1.15;;
4517;SDS011;2271;49.464;11.070;2024-03-25T11:26:25;4.95;;;1.35;;
4517;SDS011;2271;49.464;11.070;2024-03-25T11:28:52;3.20;;;1.55;;
4517;SDS011;2271;49.464;11.070;2024-03-25T11:31:19;3.75;;;1.70;;
4517;SDS011;2271;49.464;11.070;2024-03-25T11:33:46;2.03;;;1.75;;
4517;SDS011;2271;49.464;11.070;2024-03-25T11:36:12;3.80;;;2.28;;
4517;SDS011;2271;49.464;11.070;2024-03-25T11:38:38;3.00;;;1.50;;
4517;SDS011;2271;49.464;11.070;2024-03-25T11:41:07;4.15;;;1.90;;
4517;SDS011;2271;49.464;11.070;2024-03-25T11:43:32;2.22;;;1.50;;
4517;SDS011;2271;49.464;11.070;2024-03-25T11:45:58;3.65;;;1.60;;
4517;SDS011;2271;49.464;11.070;2024-03-25T11:48:24;4.53;;;1.88;;
4517;SDS011;2271;49.464;11.070;2024-03-25T11:50:50;2.58;;;1.60;;
4517;SDS011;2271;49.464;11.070;2024-03-25T11:53:15;2.83;;;1.40;;
4517;SDS011;2271;49.464;11.070;2024-03-25T11:55:45;6.32;;;1.20;;
4517;SDS011;2271;49.464;11.070;2024-03-25T11:58:11;2.65;;;1.08;;
4517;SDS011;2271;49.464;11.070;2024-03-25T12:00:46;2.45;;;1.48;;
4517;SDS011;2271;49.464;11.070;2024-03-25T12:03:16;2.50;;;1.25;;
4517;SDS011;2271;49.464;11.070;2024-03-25T12:05:45;1.55;;;1.10;;
4517;SDS011;2271;49.464;11.070;2024-03-25T12:08:10;2.38;;;1.20;;
4517;SDS011;2271;49.464;11.070;2024-03-25T12:10:37;2.17;;;1.00;;
4517;SDS011;2271;49.464;11.070;2024-03-25T12:13:21;1.42;;;0.98;;
4517;SDS011;2271;49.464;11.070;2024-03-25T12:15:49;2.35;;;0.95;;
4517;SDS011;2271;49.464;11.070;2024-03-25T12:18:15;2.13;;;1.15;;
4517;SDS011;2271;49.464;11.070;2024-03-25T12:20:40;2.95;;;1.77;;
4517;SDS011;2271;49.464;11.070;2024-03-25T12:23:06;3.83;;;1.30;;
4517;SDS011;2271;49.464;11.070;2024-03-25T12:25:32;2.53;;;1.20;;
4517;SDS011;2271;49.464;11.070;2024-03-25T12:27:58;2.33;;;1.40;;
4517;SDS011;2271;49.464;11.070;2024-03-25T12:30:23;3.95;;;1.63;;
4517;SDS011;2271;49.464;11.070;2024-03-25T12:32:50;3.17;;;1.50;;
4517;SDS011;2271;49.464;11.070;2024-03-25T12:35:16;1.55;;;1.20;;
4517;SDS011;2271;49.464;11.070;2024-03-25T12:37:45;1.80;;;1.25;;
4517;SDS011;2271;49.464;11.070;2024-03-25T12:40:12;1.42;;;1.30;;
4517;SDS011;2271;49.464;11.070;2024-03-25T12:42:52;3.10;;;1.30;;
4517;SDS011;2271;49.464;11.070;2024-03-25T12:45:18;3.55;;;1.25;;
4517;SDS011;2271;49.464;11.070;2024-03-25T12:47:45;2.92;;;1.35;;
4517;SDS011;2271;49.464;11.070;2024-03-25T12:50:10;1.85;;;1.20;;
4517;SDS011;2271;49.464;11.070;2024-03-25T12:52:36;2.05;;;1.33;;
4517;SDS011;2271;49.464;11.070;2024-03-25T12:55:02;3.13;;;1.17;;
4517;SDS011;2271;49.464;11.070;2024-03-25T12:57:28;2.85;;;1.45;;
4517;SDS011;2271;49.464;11.070;2024-03-25T12:59:54;2.97;;;1.35;;
4517;SDS011;2271;49.464;11.070;2024-03-25T13:02:20;2.30;;;1.30;;
4517;SDS011;2271;49.464;11.070;2024-03-25T13:04:45;1.80;;;1.10;;
4517;SDS011;2271;49.464;11.070;2024-03-25T13:07:11;1.77;;;1.40;;
4517;SDS011;2271;49.464;11.070;2024-03-25T13:09:37;2.45;;;1.27;;
4517;SDS011;2271;49.464;11.070;2024-03-25T13:12:03;2.17;;;1.25;;
4517;SDS011;2271;49.464;11.070;2024-03-25T13:14:29;2.35;;;1.25;;
4517;SDS011;2271;49.464;11.070;2024-03-25T13:16:54;2.42;;;1.45;;
4517;SDS011;2271;49.464;11.070;2024-03-25T13:19:20;1.38;;;1.27;;
4517;SDS011;2271;49.464;11.070;2024-03-25T13:21:46;1.42;;;1.08;;
4517;SDS011;2271;49.464;11.070;2024-03-25T13:24:12;1.95;;;1.48;;
4517;SDS011;2271;49.464;11.070;2024-03-25T13:26:38;2.20;;;1.58;;
4517;SDS011;2271;49.464;11.070;2024-03-25T13:29:04;3.10;;;1.40;;
4517;SDS011;2271;49.464;11.070;2024-03-25T13:31:30;1.77;;;1.20;;
4517;SDS011;2271;49.464;11.070;2024-03-25T13:33:55;4.22;;;1.50;;
4517;SDS011;2271;49.464;11.070;2024-03-25T13:36:21;1.98;;;1.20;;
4517;SDS011;2271;49.464;11.070;2024-03-25T13:38:46;1.58;;;1.40;;
4517;SDS011;2271;49.464;11.070;2024-03-25T13:41:12;1.33;;;1.20;;
4517;SDS011;2271;49.464;11.070;2024-03-25T13:43:43;1.25;;;1.08;;
4517;SDS011;2271;49.464;11.070;2024-03-25T13:46:09;3.05;;;1.27;;
4517;SDS011;2271;49.464;11.070;2024-03-25T13:48:37;2.47;;;1.20;;
4517;SDS011;2271;49.464;11.070;2024-03-25T13:51:03;4.43;;;1.70;;
4517;SDS011;2271;49.464;11.070;2024-03-25T13:53:29;3.58;;;1.52;;
4517;SDS011;2271;49.464;11.070;2024-03-25T13:55:54;2.05;;;1.20;;
4517;SDS011;2271;49.464;11.070;2024-03-25T13:58:20;1.38;;;1.20;;
4517;SDS011;2271;49.464;11.070;2024-03-25T14:00:45;1.05;;;0.95;;
4517;SDS011;2271;49.464;11.070;2024-03-25T14:03:11;1.38;;;1.02;;
4517;SDS011;2271;49.464;11.070;2024-03-25T14:05:37;1.52;;;1.38;;
4517;SDS011;2271;49.464;11.070;2024-03-25T14:08:02;1.58;;;1.10;;
4517;SDS011;2271;49.464;11.070;2024-03-25T14:10:28;2.10;;;1.00;;
4517;SDS011;2271;49.464;11.070;2024-03-25T14:12:55;1.55;;;1.17;;
4517;SDS011;2271;49.464;11.070;2024-03-25T14:15:21;1.67;;;0.98;;
4517;SDS011;2271;49.464;11.070;2024-03-25T14:17:46;1.20;;;1.00;;
4517;SDS011;2271;49.464;11.070;2024-03-25T14:20:12;1.73;;;0.95;;
4517;SDS011;2271;49.464;11.070;2024-03-25T14:22:37;1.45;;;1.35;;
4517;SDS011;2271;49.464;11.070;2024-03-25T14:25:03;1.55;;;1.17;;
4517;SDS011;2271;49.464;11.070;2024-03-25T14:27:29;2.38;;;1.10;;
4517;SDS011;2271;49.464;11.070;2024-03-25T14:29:54;1.15;;;1.05;;
4517;SDS011;2271;49.464;11.070;2024-03-25T14:32:20;1.63;;;1.38;;
4517;SDS011;2271;49.464;11.070;2024-03-25T14:34:47;1.50;;;1.10;;
4517;SDS011;2271;49.464;11.070;2024-03-25T14:37:13;1.98;;;1.20;;
4517;SDS011;2271;49.464;11.070;2024-03-25T14:39:39;2.58;;;1.42;;
4517;SDS011;2271;49.464;11.070;2024-03-25T14:42:07;1.90;;;1.33;;
4517;SDS011;2271;49.464;11.070;2024-03-25T14:44:35;4.55;;;1.88;;
4517;SDS011;2271;49.464;11.070;2024-03-25T14:47:01;1.73;;;1.27;;
4517;SDS011;2271;49.464;11.070;2024-03-25T14:49:28;2.17;;;1.20;;
4517;SDS011;2271;49.464;11.070;2024-03-25T14:51:54;1.95;;;1.40;;
4517;SDS011;2271;49.464;11.070;2024-03-25T14:54:19;1.85;;;1.35;;
4517;SDS011;2271;49.464;11.070;2024-03-25T14:56:46;3.90;;;1.75;;
4517;SDS011;2271;49.464;11.070;2024-03-25T14:59:11;1.77;;;1.38;;